Cedar Bluff, VA

5:02 PM EDT on March 29, 2015 (GMT -0400)
Tazewell County | | Change Station
CLOSE
Current Station
Airport
Location: Richlands,
Elevation: 2651 ft
Nearby Weather Stations

Elev 2651 ft 37.06 °N, 81.80 °W | Updated 7 minutes ago

Clear
Clear
48 °F
Feels Like 48 °F
N
9
Wind Variable Wind from WSW
Gusts 18 mph

Today
High -- | Low -- °F
--% Chance of Precip.
Yesterday
High -- | Low -- °F
Precip. -- in
7:17 AM 7:46 PM
Waxing Gibbous, 74% visible
Pressure 30.18 in
Visibility 10.0 miles
Clouds Clear
Dew Point -5 °F
Humidity 11%
Rainfall 0.00 in
Snow Depth Not available.
UV 4 out of 12
Pollen 7.00 out of 12
Air Quality Not available.
Flu Activity Not available.
METAR KJFZ 292055Z AUTO 24008G16KT 10SM CLR 09/M20 A3018 RMK AO2 T00911204

More Conditions Fewer Conditions

Pressure 30.18 in
Visibility 10.0 miles
Clouds Clear
Dew Point -5 °F
Humidity 11%
Rainfall 0.00 in
Snow Depth Not available.
UV 4 out of 12
Pollen 7.00 out of 12
Air Quality Not available.
Flu Activity Not available.
METAR KJFZ 292055Z AUTO 24008G16KT 10SM CLR 09/M20 A3018 RMK AO2 T00911204

More Conditions Fewer Conditions

10-Day Weather Forecast

Almanac

Astronomy

Mar. 29, 2015 Rise Set
Actual Time
Civil Twilight
Nautical Twilight
Astronomical Twilight
Moon
Length of Visible Light
Length of Day
Tomorrow will be .
, % of the Moon is Illuminated

Today's Extremes

State Highs State Lows

Community

WunderPhotos

Upload Photos

1,809,349 photos uploaded!

WunderBlogs® & News

Nearby

Air Quality

  Air Quality AQ Index Pollutant
Not available.

Snow Depth

Station Depth Elevation

Earthquake Activity

City Distance Mag. Time & Date
Minimum magnitude displayed is 2.5.

Coastal Water Temperatures

Place Temperature

Stations

Nearby Weather Stations

Station Location Temp. Windchill Dew Point Humidity Wind Precip. Elev Updated Type